Callao, Virginia
Current Conditions -  °F | °C
As of 1:53 AM on Wednesday 26 Nov 2014 (Local Time) from KNUI Reporting Station
Light Rain Light Rain  
Wind Chill: 45°   Ceiling: 7500
Heat Index: 47°   Visibility: 10mi
Dew Point: 42°   Wind: 5mph
Humidity: 83%   Direction: 30°NNE
Pressure: 30.11"   Gusts: NA
Location:  37.97°N, 76.56°W
Report Text: KNUI 260653Z AUTO 03004KT 10SM -RA OVC075 08/06 A3011 RMK AO2 SLP196 P0003 T00830056
Loading
Personal Weather Stations






























Interactive Weather Map New forecast layout! Learn more

10-Day Weather Forecast

Advertisements
Track Severe Weather on mobile